This is the latest recevied weather packets stored in our database for station/object KF7SOJ. If no packets are shown the sender has not sent any weather packets the latest 10 day(s).
| Time | Temp. | Humidity | Pressure | Rain* | Wind** | Luminosity | Snow |
|---|---|---|---|---|---|---|---|
| 1777438050 | 5.56° C | 73% | 934.8 hPa | 0 mm | - | 0 W/m² | - |
| 1777437444 | 6.11° C | 72% | 934.6 hPa | 0 mm | - | 0 W/m² | - |
| 1777437140 | 5.56° C | 73% | 934.4 hPa | 0 mm | - | 0 W/m² | - |
| 1777436837 | 6.11° C | 71% | 934.6 hPa | 0 mm | - | 0 W/m² | - |
| 1777436533 | 7.22° C | 66% | 934.4 hPa | 0 mm | - | 0 W/m² | - |
| 1777436230 | 7.22° C | 66% | 934.4 hPa | 0 mm | - | 0 W/m² | - |
| 1777435927 | 7.22° C | 65% | 934.4 hPa | 0 mm | - | 0 W/m² | - |
| 1777435623 | 7.22° C | 66% | 934.3 hPa | 0 mm | - | 0 W/m² | - |
| 1777435017 | 7.22° C | 67% | 934.4 hPa | 0 mm | - | 0 W/m² | - |
| 1777434714 | 6.67° C | 67% | 934.4 hPa | 0 mm | - | 0 W/m² | - |
| 1777434413 | 7.22° C | 66% | 934.6 hPa | 0 mm | - | 0 W/m² | - |
| 1777434112 | 7.22° C | 66% | 934.4 hPa | 0 mm | - | 0 W/m² | - |
| 1777433808 | 7.22° C | 67% | 934.4 hPa | 0 mm | - | 0 W/m² | - |
| 1777433504 | 6.67° C | 66% | 934.4 hPa | 0 mm | - | 0 W/m² | - |
| 1777433200 | 7.22° C | 66% | 934.4 hPa | 0 mm | - | 0 W/m² | - |
| 1777428649 | 8.33° C | 58% | 933.6 hPa | 0 mm | - | 5 W/m² | - |
| 1777422873 | 11.67° C | 45% | 933.2 hPa | 0 mm | - | 102 W/m² | - |
| 1777415590 | 11.11° C | 44% | 932.6 hPa | 0 mm | - | 186 W/m² | - |
| 1777414680 | 11.67° C | 43% | 932.4 hPa | 0 mm | - | 587 W/m² | - |
| 1777414076 | 11.11° C | 45% | 932.5 hPa | 0 mm | - | 357 W/m² | - |
| 1777413776 | 10.56° C | 46% | 932.6 hPa | 0 mm | - | 393 W/m² | - |
| 1777412261 | 11.11° C | 44% | 932.5 hPa | 0 mm | - | 204 W/m² | - |
| 1777411050 | 12.78° C | 34% | 932.3 hPa | 0 mm | - | 278 W/m² | - |
| 1777409839 | 12.22° C | 40% | 932.6 hPa | 0 mm | - | 331 W/m² | - |
| 1777408623 | 11.67° C | 42% | 932.4 hPa | 0 mm | - | 420 W/m² | - |
* Rain latest hour (hover to see other rain measurements)
** Current wind speed in m/s (hover to see current wind gust speed)